Time;durP1;ratioP1;P1;durP2;ratioP2;P2;SDS_P1;SDS_P2;PMS_P1;PMS_P2;Temp;Humidity;BMP_temperature;BMP_pressure;BME280_temperature;BME280_humidity;BME280_pressure;Samples;Min_cycle;Max_cycle;Signal;HPM_P1;HPM_P2
2023/01/26 00:00:39;;;;;;;252.50;64.22;;;;;;;;;;5117576;28;20228;-73
2023/01/26 00:03:06;;;;;;;267.70;67.32;;;;;;;;;;5117077;27;20212;-74
2023/01/26 00:05:37;;;;;;;268.83;70.28;;;;;;;;;;5116892;27;20205;-74
2023/01/26 00:08:05;;;;;;;274.80;70.00;;;;;;;;;;5118169;27;20201;-74
2023/01/26 00:10:37;;;;;;;256.50;64.00;;;;;;;;;;5117252;27;20205;-74
2023/01/26 00:13:05;;;;;;;266.90;67.95;;;;;;;;;;5118122;27;20208;-74
2023/01/26 00:15:35;;;;;;;269.08;71.88;;;;;;;;;;5118018;27;20196;-74
2023/01/26 00:18:03;;;;;;;268.27;70.95;;;;;;;;;;5117053;27;20232;-74
2023/01/26 00:20:31;;;;;;;278.77;70.63;;;;;;;;;;5117933;27;20553;-74
2023/01/26 00:23:01;;;;;;;248.27;62.22;;;;;;;;;;5117442;27;20591;-75
2023/01/26 00:25:29;;;;;;;248.60;65.32;;;;;;;;;;5117476;27;20227;-75
2023/01/26 00:27:57;;;;;;;249.18;64.80;;;;;;;;;;5118123;27;20628;-74
2023/01/26 00:30:25;;;;;;;262.05;66.03;;;;;;;;;;5117245;28;20236;-75
2023/01/26 00:32:58;;;;;;;274.52;69.88;;;;;;;;;;5117310;27;20650;-72
2023/01/26 00:35:26;;;;;;;279.27;73.10;;;;;;;;;;5117933;27;20201;-75
2023/01/26 00:37:54;;;;;;;250.50;65.53;;;;;;;;;;5125071;27;20226;-73
2023/01/26 00:40:25;;;;;;;264.50;67.75;;;;;;;;;;5137715;27;20265;-74
2023/01/26 00:42:53;;;;;;;259.85;66.13;;;;;;;;;;5138889;27;20211;-74
2023/01/26 00:45:21;;;;;;;259.27;66.63;;;;;;;;;;5127248;27;20211;-75
2023/01/26 00:47:48;;;;;;;258.02;68.82;;;;;;;;;;5117767;27;20213;-74
2023/01/26 00:50:18;;;;;;;271.10;71.93;;;;;;;;;;5117548;27;20295;-74
2023/01/26 00:52:55;;;;;;;265.75;67.13;;;;;;;;;;5117866;27;20216;-74
2023/01/26 00:55:31;;;;;;;271.63;68.75;;;;;;;;;;5116876;27;20200;-74
2023/01/26 00:57:59;;;;;;;262.05;67.93;;;;;;;;;;5117462;27;20646;-75
2023/01/26 01:00:27;;;;;;;266.30;72.15;;;;;;;;;;5116650;27;20209;-74
2023/01/26 01:02:55;;;;;;;267.23;69.13;;;;;;;;;;5116902;27;20339;-74
2023/01/26 01:05:24;;;;;;;266.33;71.00;;;;;;;;;;5116790;27;20205;-75
2023/01/26 01:07:52;;;;;;;253.02;65.00;;;;;;;;;;5116935;28;20231;-74
2023/01/26 01:10:23;;;;;;;242.85;60.95;;;;;;;;;;5117088;27;20216;-75
2023/01/26 01:12:55;;;;;;;251.18;66.38;;;;;;;;;;5117132;28;20205;-74
2023/01/26 01:15:26;;;;;;;257.83;64.40;;;;;;;;;;5116593;28;20821;-75
2023/01/26 01:17:54;;;;;;;242.27;65.10;;;;;;;;;;5127673;27;20220;-75
2023/01/26 01:20:23;;;;;;;242.00;64.57;;;;;;;;;;5137631;27;20214;-74
2023/01/26 01:22:52;;;;;;;253.45;65.03;;;;;;;;;;5137250;27;20533;-74
2023/01/26 01:25:19;;;;;;;281.90;70.75;;;;;;;;;;5137317;27;20625;-74
2023/01/26 01:27:52;;;;;;;269.92;67.95;;;;;;;;;;5137460;27;20291;-75
2023/01/26 01:30:20;;;;;;;260.27;67.10;;;;;;;;;;5136847;27;20268;-73
2023/01/26 01:32:50;;;;;;;258.45;66.72;;;;;;;;;;5132640;27;20279;-74
2023/01/26 01:35:20;;;;;;;250.43;63.75;;;;;;;;;;5137072;27;20204;-74
2023/01/26 01:37:50;;;;;;;266.08;70.50;;;;;;;;;;5137077;27;20232;-75
2023/01/26 01:40:17;;;;;;;252.65;65.20;;;;;;;;;;5136589;27;20599;-74
2023/01/26 01:42:52;;;;;;;267.15;71.68;;;;;;;;;;5137453;27;20235;-74
2023/01/26 01:45:50;;;;;;;268.15;73.45;;;;;;;;;;5136773;27;20473;-74
2023/01/26 01:48:24;;;;;;;269.02;69.95;;;;;;;;;;5123380;27;20204;-74
2023/01/26 01:50:53;;;;;;;256.52;67.45;;;;;;;;;;5136616;27;20603;-74
2023/01/26 01:53:27;;;;;;;275.90;68.38;;;;;;;;;;5137291;27;20204;-74
2023/01/26 01:56:02;;;;;;;269.90;67.03;;;;;;;;;;5115999;28;20215;-74
2023/01/26 01:58:31;;;;;;;266.73;67.43;;;;;;;;;;5135084;27;20223;-74
2023/01/26 02:00:58;;;;;;;260.30;69.55;;;;;;;;;;5136754;27;20204;-74
2023/01/26 02:03:27;;;;;;;271.50;67.70;;;;;;;;;;5136349;27;20500;-74
2023/01/26 02:05:56;;;;;;;255.93;65.10;;;;;;;;;;5136481;27;20208;-74
2023/01/26 02:08:27;;;;;;;278.75;68.80;;;;;;;;;;5136710;27;20268;-75
2023/01/26 02:10:59;;;;;;;273.33;67.95;;;;;;;;;;5136531;27;20236;-74
2023/01/26 02:13:30;;;;;;;267.85;68.72;;;;;;;;;;5136734;27;20215;-75
2023/01/26 02:15:59;;;;;;;256.25;64.85;;;;;;;;;;5136418;27;20211;-74
2023/01/26 02:21:08;;;;;;;261.13;68.85;;;;;;;;;;5136246;27;20204;-75
2023/01/26 02:23:47;;;;;;;259.65;66.63;;;;;;;;;;5136420;27;20597;-74
2023/01/26 02:26:24;;;;;;;266.65;68.88;;;;;;;;;;5136179;27;20368;-74
2023/01/26 02:28:51;;;;;;;251.10;64.18;;;;;;;;;;5140176;27;20211;-75
2023/01/26 02:31:23;;;;;;;263.17;68.20;;;;;;;;;;5139505;27;20541;-74
2023/01/26 02:33:51;;;;;;;254.50;64.32;;;;;;;;;;5140804;27;20208;-74
2023/01/26 02:36:20;;;;;;;275.08;69.65;;;;;;;;;;5140639;27;20203;-75
2023/01/26 02:38:52;;;;;;;263.90;68.97;;;;;;;;;;5140671;27;20231;-74
2023/01/26 02:44:13;;;;;;;284.40;72.35;;;;;;;;;;5140225;27;20277;-75
2023/01/26 02:46:49;;;;;;;266.65;70.88;;;;;;;;;;5134260;27;20660;-75
2023/01/26 02:52:02;;;;;;;268.15;66.78;;;;;;;;;;5134502;27;20305;-75
2023/01/26 02:57:16;;;;;;;281.92;73.25;;;;;;;;;;5140910;27;20277;-75
2023/01/26 02:59:43;;;;;;;285.00;74.07;;;;;;;;;;5139307;27;20227;-74
2023/01/26 03:02:11;;;;;;;267.38;70.20;;;;;;;;;;5120895;27;20212;-74
2023/01/26 03:04:39;;;;;;;259.95;67.72;;;;;;;;;;5119414;27;20215;-74
2023/01/26 03:07:09;;;;;;;256.50;66.43;;;;;;;;;;5136627;27;20239;-74
2023/01/26 03:09:40;;;;;;;264.10;66.65;;;;;;;;;;5140073;27;20214;-74
2023/01/26 03:12:08;;;;;;;254.75;67.88;;;;;;;;;;5138621;27;20212;-74
2023/01/26 03:14:37;;;;;;;265.80;66.43;;;;;;;;;;5127036;27;20213;-73
2023/01/26 03:17:08;;;;;;;255.68;69.03;;;;;;;;;;5122281;27;20460;-73
2023/01/26 03:27:54;;;;;;;269.20;71.95;;;;;;;;;;5118780;27;20843;-74
2023/01/26 03:30:24;;;;;;;265.27;68.82;;;;;;;;;;5129143;27;20200;-74
2023/01/26 03:32:58;;;;;;;272.40;73.38;;;;;;;;;;5118866;28;20224;-74
2023/01/26 03:35:25;;;;;;;263.70;67.63;;;;;;;;;;5118906;27;20236;-74
2023/01/26 03:37:53;;;;;;;259.33;66.00;;;;;;;;;;5118591;27;20287;-74
2023/01/26 03:56:56;;;;;;;239.45;61.00;;;;;;;;;;5138547;27;20256;-74
2023/01/26 03:59:36;;;;;;;263.05;71.50;;;;;;;;;;5138498;27;20540;-74
2023/01/26 04:10:20;;;;;;;270.52;71.00;;;;;;;;;;5138196;27;20207;-73
2023/01/26 04:23:55;;;;;;;267.98;71.07;;;;;;;;;;5117583;27;20216;-74
2023/01/26 04:26:23;;;;;;;262.10;66.45;;;;;;;;;;5117451;27;20205;-74
2023/01/26 04:28:51;;;;;;;261.50;67.35;;;;;;;;;;5117386;27;20208;-74
2023/01/26 04:31:18;;;;;;;277.83;70.47;;;;;;;;;;5117611;27;20216;-74
2023/01/26 04:33:50;;;;;;;265.40;67.80;;;;;;;;;;5116814;27;20716;-75
2023/01/26 04:36:20;;;;;;;274.17;69.85;;;;;;;;;;5127116;27;20272;-74
2023/01/26 04:38:50;;;;;;;275.27;75.40;;;;;;;;;;5137208;27;20220;-75
2023/01/26 04:41:18;;;;;;;258.65;68.47;;;;;;;;;;5135522;27;20212;-75
2023/01/26 04:43:53;;;;;;;275.92;72.50;;;;;;;;;;5116715;27;20204;-74
2023/01/26 04:46:21;;;;;;;263.25;70.47;;;;;;;;;;5123649;27;20556;-74
2023/01/26 04:48:53;;;;;;;261.02;69.00;;;;;;;;;;5125441;27;20197;-74
2023/01/26 04:51:21;;;;;;;260.35;67.55;;;;;;;;;;5116019;27;20220;-74
2023/01/26 04:53:50;;;;;;;256.70;66.80;;;;;;;;;;5117119;28;20213;-74
2023/01/26 04:56:21;;;;;;;254.00;66.53;;;;;;;;;;5117465;27;20273;-74
2023/01/26 04:58:48;;;;;;;284.10;72.55;;;;;;;;;;5134952;27;20431;-74
2023/01/26 05:01:19;;;;;;;247.55;63.85;;;;;;;;;;5137279;27;20599;-74
2023/01/26 05:03:49;;;;;;;262.38;67.10;;;;;;;;;;5131732;27;20334;-75
2023/01/26 05:06:21;;;;;;;264.25;69.03;;;;;;;;;;5115873;27;20212;-74
2023/01/26 05:08:49;;;;;;;280.65;70.53;;;;;;;;;;5116458;27;20273;-74
2023/01/26 05:11:17;;;;;;;267.95;70.00;;;;;;;;;;5116141;27;20209;-74
2023/01/26 05:13:46;;;;;;;258.20;68.30;;;;;;;;;;5116064;27;20656;-75
2023/01/26 05:16:14;;;;;;;265.17;68.80;;;;;;;;;;5116137;27;20515;-73
2023/01/26 05:18:42;;;;;;;267.65;67.50;;;;;;;;;;5119056;27;20220;-74
2023/01/26 05:21:10;;;;;;;272.48;69.15;;;;;;;;;;5137872;27;20449;-74
2023/01/26 05:23:42;;;;;;;296.17;75.82;;;;;;;;;;5135982;27;20644;-74
2023/01/26 05:26:09;;;;;;;255.73;66.15;;;;;;;;;;5136807;27;20295;-73
2023/01/26 05:28:37;;;;;;;262.23;66.07;;;;;;;;;;5135839;27;20656;-74
2023/01/26 05:31:04;;;;;;;278.55;72.38;;;;;;;;;;5136127;27;20216;-74
2023/01/26 05:33:32;;;;;;;270.73;75.15;;;;;;;;;;5135935;27;20204;-74
2023/01/26 05:36:05;;;;;;;256.98;65.68;;;;;;;;;;5136029;27;20207;-74
2023/01/26 05:38:33;;;;;;;259.63;67.10;;;;;;;;;;5134393;27;20232;-73
2023/01/26 05:41:02;;;;;;;266.25;70.60;;;;;;;;;;5136284;27;20295;-74
2023/01/26 05:43:31;;;;;;;266.88;68.47;;;;;;;;;;5130174;27;20231;-75
2023/01/26 05:46:01;;;;;;;276.02;72.30;;;;;;;;;;5116003;27;20204;-75
2023/01/26 05:48:28;;;;;;;276.40;68.60;;;;;;;;;;5115655;28;20555;-74
2023/01/26 05:50:59;;;;;;;279.48;71.18;;;;;;;;;;5115418;28;20207;-74
2023/01/26 05:53:28;;;;;;;274.20;69.57;;;;;;;;;;5115574;28;20204;-73
2023/01/26 05:55:58;;;;;;;267.98;73.40;;;;;;;;;;5115319;27;20201;-73
2023/01/26 05:58:27;;;;;;;270.50;70.38;;;;;;;;;;5122134;28;20211;-74
2023/01/26 06:00:55;;;;;;;277.23;73.50;;;;;;;;;;5136388;27;20276;-74
2023/01/26 06:03:23;;;;;;;275.55;72.57;;;;;;;;;;5135044;27;20222;-74
2023/01/26 06:05:56;;;;;;;267.92;70.40;;;;;;;;;;5136308;27;20265;-74
2023/01/26 06:08:28;;;;;;;261.00;69.05;;;;;;;;;;5127339;27;20220;-74
2023/01/26 06:11:00;;;;;;;292.63;71.47;;;;;;;;;;5115069;28;20621;-76
2023/01/26 06:13:29;;;;;;;265.88;70.25;;;;;;;;;;5116524;27;20209;-74
2023/01/26 06:15:57;;;;;;;277.25;70.68;;;;;;;;;;5128117;27;20566;-74
2023/01/26 06:18:24;;;;;;;274.95;69.75;;;;;;;;;;5133730;27;20283;-74
2023/01/26 06:20:52;;;;;;;262.85;67.90;;;;;;;;;;5134882;27;20318;-74
2023/01/26 06:26:35;;;;;;;260.58;70.90;;;;;;;;;;5100037;27;20306;-74
2023/01/26 06:29:13;;;;;;;269.17;69.65;;;;;;;;;;5133606;27;20207;-74
2023/01/26 06:31:42;;;;;;;274.13;74.10;;;;;;;;;;5134600;27;20609;-74
2023/01/26 06:34:11;;;;;;;282.60;73.60;;;;;;;;;;5132241;27;20208;-74
2023/01/26 06:36:48;;;;;;;276.00;72.15;;;;;;;;;;5130176;28;20207;-74
2023/01/26 06:39:17;;;;;;;274.58;69.68;;;;;;;;;;5129651;27;20218;-74
2023/01/26 06:41:49;;;;;;;272.75;71.05;;;;;;;;;;5139750;27;20192;-73
2023/01/26 06:44:19;;;;;;;291.15;74.60;;;;;;;;;;5153276;27;20699;-74
2023/01/26 06:46:47;;;;;;;285.85;77.65;;;;;;;;;;5137003;27;20197;-74
2023/01/26 06:49:22;;;;;;;273.90;70.95;;;;;;;;;;5129895;27;20197;-74
2023/01/26 06:51:58;;;;;;;274.08;72.22;;;;;;;;;;5124666;27;20216;-74
2023/01/26 06:54:32;;;;;;;270.48;70.25;;;;;;;;;;5113312;28;20531;-74
2023/01/26 06:57:04;;;;;;;256.98;67.00;;;;;;;;;;5132324;27;20231;-74
2023/01/26 06:59:34;;;;;;;281.58;71.35;;;;;;;;;;5122011;28;20221;-74
2023/01/26 07:02:04;;;;;;;270.52;69.00;;;;;;;;;;5134335;27;20237;-74
2023/01/26 07:04:32;;;;;;;285.08;72.80;;;;;;;;;;5116556;27;20225;-75
2023/01/26 07:07:00;;;;;;;272.42;72.05;;;;;;;;;;5113690;28;20240;-74
2023/01/26 07:09:27;;;;;;;281.05;72.25;;;;;;;;;;5114949;28;20575;-74
2023/01/26 07:11:55;;;;;;;272.90;72.80;;;;;;;;;;5119732;28;20272;-73
2023/01/26 07:14:23;;;;;;;257.60;64.50;;;;;;;;;;5144554;27;20642;-74
2023/01/26 07:16:56;;;;;;;286.33;76.45;;;;;;;;;;5138079;27;20208;-74
2023/01/26 07:19:24;;;;;;;293.23;76.45;;;;;;;;;;5130205;27;20219;-74
2023/01/26 07:21:52;;;;;;;266.17;69.07;;;;;;;;;;5115245;27;20208;-74
2023/01/26 07:24:20;;;;;;;275.85;78.22;;;;;;;;;;5116671;27;20652;-74
2023/01/26 07:26:48;;;;;;;290.30;81.28;;;;;;;;;;5115596;27;20625;-74
2023/01/26 07:29:15;;;;;;;280.75;77.55;;;;;;;;;;5116337;27;20216;-74
2023/01/26 07:31:44;;;;;;;290.63;82.40;;;;;;;;;;5120433;27;20287;-74
2023/01/26 07:34:17;;;;;;;275.10;76.00;;;;;;;;;;5136334;27;20201;-74
2023/01/26 07:36:45;;;;;;;253.52;68.78;;;;;;;;;;5121961;27;20727;-74
2023/01/26 07:39:13;;;;;;;283.35;77.82;;;;;;;;;;5120100;27;20208;-74
2023/01/26 07:41:44;;;;;;;269.50;73.60;;;;;;;;;;5116953;27;20249;-74
2023/01/26 07:44:15;;;;;;;280.45;74.05;;;;;;;;;;5122881;27;20211;-74
2023/01/26 07:46:56;;;;;;;275.25;72.82;;;;;;;;;;5134020;27;20275;-74
2023/01/26 07:49:27;;;;;;;283.80;77.72;;;;;;;;;;5120197;27;20208;-74
2023/01/26 07:51:58;;;;;;;291.25;79.28;;;;;;;;;;5121054;27;20196;-75
2023/01/26 07:54:30;;;;;;;267.25;73.07;;;;;;;;;;5136160;27;20576;-75
2023/01/26 07:56:59;;;;;;;288.70;76.53;;;;;;;;;;5137110;27;20247;-74
2023/01/26 07:59:26;;;;;;;286.35;76.70;;;;;;;;;;5132796;27;20250;-75
2023/01/26 08:02:00;;;;;;;255.43;70.20;;;;;;;;;;5129839;27;20215;-74
2023/01/26 08:04:36;;;;;;;284.30;78.30;;;;;;;;;;5128961;27;20216;-74
2023/01/26 08:09:57;;;;;;;276.65;73.32;;;;;;;;;;5126385;27;20303;-75
2023/01/26 08:12:30;;;;;;;275.92;73.20;;;;;;;;;;5124444;27;20283;-74
2023/01/26 08:14:59;;;;;;;274.88;72.35;;;;;;;;;;5126360;27;20219;-74
2023/01/26 08:20:33;;;;;;;268.60;70.85;;;;;;;;;;5128351;27;20237;-74
2023/01/26 08:23:07;;;;;;;288.98;83.28;;;;;;;;;;5125865;27;20215;-75
2023/01/26 08:25:44;;;;;;;260.55;70.28;;;;;;;;;;5133702;27;20642;-74
2023/01/26 08:28:29;;;;;;;301.25;89.90;;;;;;;;;;5132478;27;20460;-74
2023/01/26 08:31:12;;;;;;;277.38;75.70;;;;;;;;;;5130608;27;20204;-74
2023/01/26 08:33:41;;;;;;;273.88;76.10;;;;;;;;;;5135797;27;20204;-74
2023/01/26 08:36:15;;;;;;;309.75;78.40;;;;;;;;;;5129090;27;20444;-75
2023/01/26 08:38:50;;;;;;;286.00;78.05;;;;;;;;;;5123543;27;20608;-75
2023/01/26 08:41:18;;;;;;;264.38;73.00;;;;;;;;;;5134318;27;20235;-74
2023/01/26 08:43:46;;;;;;;263.70;71.22;;;;;;;;;;5131055;27;20208;-73
2023/01/26 08:46:14;;;;;;;268.35;81.25;;;;;;;;;;5131916;27;20535;-73
2023/01/26 08:48:43;;;;;;;266.52;74.32;;;;;;;;;;5128583;27;20212;-73
2023/01/26 08:51:16;;;;;;;266.45;75.10;;;;;;;;;;5129519;27;20283;-73
2023/01/26 08:54:03;;;;;;;281.70;78.47;;;;;;;;;;5129386;27;20208;-74
2023/01/26 08:56:32;;;;;;;287.70;86.53;;;;;;;;;;5127455;27;20204;-74
2023/01/26 08:59:12;;;;;;;268.45;73.90;;;;;;;;;;5132518;27;20205;-76
2023/01/26 09:11:05;;;;;;;266.77;80.90;;;;;;;;;;5120855;27;20192;-74
2023/01/26 09:13:32;;;;;;;273.20;77.68;;;;;;;;;;5091645;28;20216;-74
2023/01/26 09:16:06;;;;;;;271.17;71.80;;;;;;;;;;5085758;28;21625;-74
2023/01/26 09:18:59;;;;;;;277.35;76.85;;;;;;;;;;5090616;28;20221;-75
2023/01/26 09:27:37;;;;;;;285.13;76.82;;;;;;;;;;5129322;27;20248;-74
2023/01/26 09:30:14;;;;;;;287.83;82.15;;;;;;;;;;5129031;27;20201;-72
2023/01/26 09:32:42;;;;;;;267.58;71.53;;;;;;;;;;5150600;27;20200;-75
2023/01/26 09:35:18;;;;;;;278.02;74.68;;;;;;;;;;5134299;27;20327;-76
2023/01/26 09:37:50;;;;;;;267.98;68.00;;;;;;;;;;5126155;27;20492;-75
2023/01/26 09:40:20;;;;;;;280.58;74.00;;;;;;;;;;5130216;27;20527;-73
2023/01/26 09:43:03;;;;;;;289.80;80.25;;;;;;;;;;5122883;27;20189;-76
2023/01/26 09:46:08;;;;;;;271.75;73.07;;;;;;;;;;5138531;27;20200;-75
2023/01/26 09:48:53;;;;;;;283.20;72.32;;;;;;;;;;5129535;27;20196;-75
2023/01/26 09:54:37;;;;;;;282.75;77.90;;;;;;;;;;5127393;28;20273;-74
2023/01/26 09:57:18;;;;;;;283.90;74.88;;;;;;;;;;5121226;28;20200;-74
2023/01/26 10:00:17;;;;;;;275.38;76.90;;;;;;;;;;5126938;27;20226;-74
2023/01/26 10:03:13;;;;;;;275.10;74.00;;;;;;;;;;5119961;28;20295;-74
2023/01/26 10:06:20;;;;;;;292.02;77.38;;;;;;;;;;5126215;28;20221;-73
2023/01/26 10:08:50;;;;;;;271.73;70.60;;;;;;;;;;5128330;28;20201;-74
2023/01/26 10:11:37;;;;;;;265.15;70.60;;;;;;;;;;5132378;27;20688;-74
2023/01/26 10:14:10;;;;;;;281.70;73.72;;;;;;;;;;5129622;28;20200;-74
2023/01/26 10:16:46;;;;;;;275.08;72.50;;;;;;;;;;5128014;28;20207;-74
2023/01/26 10:19:20;;;;;;;287.17;77.45;;;;;;;;;;5124429;28;20200;-73
2023/01/26 10:21:56;;;;;;;277.77;71.68;;;;;;;;;;5131170;28;20215;-74
2023/01/26 10:24:24;;;;;;;262.65;70.20;;;;;;;;;;5135622;28;20593;-75
2023/01/26 10:26:54;;;;;;;273.17;74.05;;;;;;;;;;5134713;28;20509;-74
2023/01/26 10:29:27;;;;;;;278.10;81.43;;;;;;;;;;5127472;28;20193;-73
2023/01/26 10:31:58;;;;;;;292.05;83.45;;;;;;;;;;5123005;28;20284;-74
2023/01/26 10:34:32;;;;;;;304.63;85.80;;;;;;;;;;5130301;28;20200;-73
2023/01/26 10:37:04;;;;;;;287.25;79.22;;;;;;;;;;5114829;28;20754;-75
2023/01/26 10:39:31;;;;;;;269.40;72.00;;;;;;;;;;5116372;28;20204;-74
2023/01/26 10:42:02;;;;;;;283.25;73.85;;;;;;;;;;5118359;28;20239;-75
2023/01/26 10:44:35;;;;;;;266.35;70.85;;;;;;;;;;5115703;28;20285;-75
2023/01/26 10:47:04;;;;;;;278.92;76.22;;;;;;;;;;5132019;27;20587;-74
2023/01/26 10:49:35;;;;;;;279.15;72.97;;;;;;;;;;5134969;27;20203;-75
2023/01/26 10:52:10;;;;;;;269.98;72.45;;;;;;;;;;5133482;27;20479;-75
2023/01/26 10:54:42;;;;;;;292.92;73.70;;;;;;;;;;5132987;27;20207;-75
2023/01/26 10:57:18;;;;;;;289.02;75.28;;;;;;;;;;5121900;27;20363;-75
2023/01/26 10:59:52;;;;;;;290.60;77.55;;;;;;;;;;5128974;27;20192;-75
2023/01/26 11:02:26;;;;;;;290.60;80.68;;;;;;;;;;5132138;27;20239;-75
2023/01/26 11:05:21;;;;;;;272.23;74.28;;;;;;;;;;5138736;27;20294;-74
2023/01/26 11:07:57;;;;;;;275.35;77.72;;;;;;;;;;5098304;27;20235;-76
2023/01/26 11:10:29;;;;;;;330.60;96.20;;;;;;;;;;5141997;27;20758;-77
2023/01/26 11:13:18;;;;;;;307.30;79.13;;;;;;;;;;5137899;27;20275;-76
2023/01/26 11:19:16;;;;;;;280.77;76.45;;;;;;;;;;5102550;27;20192;-76
2023/01/26 11:21:56;;;;;;;287.52;77.13;;;;;;;;;;5136093;27;20247;-76
2023/01/26 11:24:55;;;;;;;290.25;74.43;;;;;;;;;;5132200;27;20243;-76
2023/01/26 11:27:50;;;;;;;292.65;71.95;;;;;;;;;;5138563;27;20200;-75
2023/01/26 11:30:39;;;;;;;283.15;76.63;;;;;;;;;;5135466;27;20192;-74
2023/01/26 11:33:15;;;;;;;297.73;73.85;;;;;;;;;;5121816;27;20561;-76
2023/01/26 11:36:02;;;;;;;285.80;76.65;;;;;;;;;;5119170;28;20611;-75
2023/01/26 11:38:38;;;;;;;297.67;78.32;;;;;;;;;;5132387;27;20283;-75
2023/01/26 11:41:26;;;;;;;286.90;79.95;;;;;;;;;;5118505;27;20276;-76
2023/01/26 11:47:18;;;;;;;302.75;80.05;;;;;;;;;;5123202;27;20208;-77
2023/01/26 11:50:03;;;;;;;279.20;75.40;;;;;;;;;;5133936;27;20205;-75
2023/01/26 11:52:55;;;;;;;286.67;77.55;;;;;;;;;;5117069;27;20208;-75
2023/01/26 11:55:44;;;;;;;292.83;79.93;;;;;;;;;;5137776;27;20206;-75
2023/01/26 11:58:23;;;;;;;316.48;78.40;;;;;;;;;;5140847;27;20206;-75
2023/01/26 12:00:54;;;;;;;284.92;74.90;;;;;;;;;;5141520;27;20731;-75
2023/01/26 12:03:28;;;;;;;269.70;73.00;;;;;;;;;;5136252;27;20279;-74
2023/01/26 12:05:59;;;;;;;295.27;75.53;;;;;;;;;;5124616;27;20200;-76
2023/01/26 12:08:38;;;;;;;283.85;73.07;;;;;;;;;;5129481;27;20192;-73
2023/01/26 12:11:25;;;;;;;312.38;76.05;;;;;;;;;;5137941;27;20200;-76
2023/01/26 12:14:10;;;;;;;276.83;70.03;;;;;;;;;;5138778;27;20270;-76
2023/01/26 12:16:53;;;;;;;304.08;77.00;;;;;;;;;;5136154;27;20291;-75
2023/01/26 12:19:31;;;;;;;295.63;72.90;;;;;;;;;;5122120;27;20196;-76
2023/01/26 12:22:03;;;;;;;296.50;81.25;;;;;;;;;;5134728;27;20208;-76
2023/01/26 12:24:36;;;;;;;304.25;80.75;;;;;;;;;;5136133;27;20472;-75
2023/01/26 12:27:06;;;;;;;311.30;84.32;;;;;;;;;;5119512;27;20250;-75
2023/01/26 12:29:40;;;;;;;303.88;73.65;;;;;;;;;;5134957;27;20254;-75
2023/01/26 12:32:15;;;;;;;303.48;83.90;;;;;;;;;;5136010;27;20193;-75
2023/01/26 12:34:48;;;;;;;316.08;77.78;;;;;;;;;;5131338;27;20214;-75
2023/01/26 12:37:23;;;;;;;311.00;80.15;;;;;;;;;;5131773;27;20281;-75
2023/01/26 12:39:57;;;;;;;298.80;69.93;;;;;;;;;;5118204;27;20936;-75
2023/01/26 12:42:31;;;;;;;304.38;75.00;;;;;;;;;;5116651;28;20219;-76
2023/01/26 12:45:01;;;;;;;318.40;77.30;;;;;;;;;;5121584;27;20215;-76
2023/01/26 12:47:35;;;;;;;306.92;73.40;;;;;;;;;;5136954;27;20223;-75
2023/01/26 12:50:09;;;;;;;294.17;73.57;;;;;;;;;;5137798;27;20242;-75
2023/01/26 12:52:39;;;;;;;277.00;72.82;;;;;;;;;;5136973;27;20223;-75
2023/01/26 12:58:18;;;;;;;299.17;74.90;;;;;;;;;;5108198;27;20200;-74
2023/01/26 13:01:14;;;;;;;280.40;71.90;;;;;;;;;;5129656;27;20197;-74
2023/01/26 13:10:33;;;;;;;272.50;71.43;;;;;;;;;;5128483;27;20196;-75
2023/01/26 13:13:23;;;;;;;276.60;74.00;;;;;;;;;;5044560;27;20216;-75
2023/01/26 13:16:27;;;;;;;291.13;73.60;;;;;;;;;;5143131;27;20587;-74
2023/01/26 13:19:23;;;;;;;309.10;78.07;;;;;;;;;;5148824;27;20217;-73
2023/01/26 13:22:01;;;;;;;276.15;75.05;;;;;;;;;;5126799;27;20339;-74
2023/01/26 13:24:53;;;;;;;275.85;73.53;;;;;;;;;;5136412;27;20766;-74
2023/01/26 13:27:49;;;;;;;280.25;71.72;;;;;;;;;;5127677;27;20216;-74
2023/01/26 13:30:45;;;;;;;329.45;79.97;;;;;;;;;;5128223;27;20209;-75
2023/01/26 13:33:28;;;;;;;318.98;73.95;;;;;;;;;;5128472;27;20207;-73
2023/01/26 13:36:06;;;;;;;314.45;81.28;;;;;;;;;;5128015;27;20671;-73
2023/01/26 13:38:40;;;;;;;303.65;73.80;;;;;;;;;;5137891;27;20656;-74
2023/01/26 13:41:22;;;;;;;302.88;73.68;;;;;;;;;;5126126;27;20217;-74
2023/01/26 13:44:11;;;;;;;288.40;79.00;;;;;;;;;;5121181;27;20189;-75
2023/01/26 13:52:46;;;;;;;284.77;73.47;;;;;;;;;;5113160;28;20254;-72
2023/01/26 13:55:24;;;;;;;289.05;78.75;;;;;;;;;;5122904;27;20744;-74
2023/01/26 13:58:12;;;;;;;288.05;77.40;;;;;;;;;;5135528;27;20195;-75
2023/01/26 14:00:46;;;;;;;280.05;80.95;;;;;;;;;;5132417;27;20696;-74
2023/01/26 14:03:23;;;;;;;283.10;77.80;;;;;;;;;;5132754;27;20235;-74
2023/01/26 14:06:00;;;;;;;280.42;76.65;;;;;;;;;;5130188;27;20196;-73
2023/01/26 14:08:33;;;;;;;287.45;80.65;;;;;;;;;;5127749;28;20659;-74
2023/01/26 14:11:09;;;;;;;286.25;78.63;;;;;;;;;;5127374;28;20211;-76
2023/01/26 14:14:15;;;;;;;304.33;80.78;;;;;;;;;;5126368;28;20200;-75
2023/01/26 14:16:46;;;;;;;297.38;82.50;;;;;;;;;;5139907;27;20211;-75
2023/01/26 14:19:19;;;;;;;291.20;81.97;;;;;;;;;;5129572;27;20208;-75
2023/01/26 14:21:56;;;;;;;298.27;73.97;;;;;;;;;;5131985;28;20224;-74
2023/01/26 14:24:43;;;;;;;287.90;78.45;;;;;;;;;;5137638;27;20499;-75
2023/01/26 14:27:29;;;;;;;296.20;79.97;;;;;;;;;;5136460;27;20278;-74
2023/01/26 14:29:58;;;;;;;297.50;80.28;;;;;;;;;;5138679;27;20196;-74
2023/01/26 14:32:42;;;;;;;288.15;76.47;;;;;;;;;;5140317;27;20195;-74
2023/01/26 14:35:44;;;;;;;301.33;80.93;;;;;;;;;;5139712;27;20649;-74
2023/01/26 14:38:19;;;;;;;289.45;75.32;;;;;;;;;;5135327;27;20245;-75
2023/01/26 14:40:54;;;;;;;306.05;78.65;;;;;;;;;;5124569;27;20308;-74
2023/01/26 14:43:23;;;;;;;293.95;78.45;;;;;;;;;;5123094;27;20608;-74
2023/01/26 14:45:53;;;;;;;299.15;76.60;;;;;;;;;;5138578;27;20203;-73
2023/01/26 14:48:23;;;;;;;297.65;79.50;;;;;;;;;;5142887;27;20203;-74
2023/01/26 14:50:54;;;;;;;295.42;83.88;;;;;;;;;;5135899;27;20636;-74
2023/01/26 14:53:25;;;;;;;291.08;79.00;;;;;;;;;;5128929;27;20275;-74
2023/01/26 14:55:54;;;;;;;310.80;83.13;;;;;;;;;;5127559;27;20193;-74
2023/01/26 14:58:28;;;;;;;297.77;81.28;;;;;;;;;;5138615;27;20323;-74
2023/01/26 15:00:58;;;;;;;296.88;79.93;;;;;;;;;;5131565;27;20211;-74
2023/01/26 15:03:27;;;;;;;300.25;79.45;;;;;;;;;;5145571;27;20218;-74
2023/01/26 15:06:20;;;;;;;318.80;88.80;;;;;;;;;;5145570;27;20259;-74
2023/01/26 15:08:57;;;;;;;305.08;81.22;;;;;;;;;;5118024;27;20212;-73
2023/01/26 15:14:51;;;;;;;295.00;76.07;;;;;;;;;;5135243;27;20176;-74
2023/01/26 15:17:39;;;;;;;292.45;75.95;;;;;;;;;;5112908;27;20203;-72
2023/01/26 15:20:33;;;;;;;295.48;77.72;;;;;;;;;;5132601;27;20619;-73
2023/01/26 15:23:02;;;;;;;300.73;79.43;;;;;;;;;;5115761;28;20225;-73
2023/01/26 15:25:33;;;;;;;281.67;74.13;;;;;;;;;;5134501;27;20303;-73
2023/01/26 15:28:22;;;;;;;286.05;78.40;;;;;;;;;;5129891;27;20213;-74
2023/01/26 15:30:55;;;;;;;300.45;85.93;;;;;;;;;;5120146;27;20204;-74
2023/01/26 15:33:51;;;;;;;309.15;82.10;;;;;;;;;;5143775;27;20200;-73
2023/01/26 15:36:33;;;;;;;290.30;77.22;;;;;;;;;;5126194;27;20261;-74
2023/01/26 15:39:16;;;;;;;287.35;79.68;;;;;;;;;;5132869;27;22074;-71
2023/01/26 15:41:46;;;;;;;296.58;79.85;;;;;;;;;;5137264;27;20222;-73
2023/01/26 15:44:23;;;;;;;286.27;72.07;;;;;;;;;;5136734;27;20289;-73
2023/01/26 15:46:59;;;;;;;291.75;78.30;;;;;;;;;;5136512;27;20290;-74
2023/01/26 15:49:46;;;;;;;290.77;71.38;;;;;;;;;;5137633;27;20617;-73
2023/01/26 15:52:16;;;;;;;280.45;76.15;;;;;;;;;;5132025;27;20193;-74
2023/01/26 15:54:44;;;;;;;289.17;75.18;;;;;;;;;;5119364;27;20510;-73
2023/01/26 15:57:13;;;;;;;298.38;81.70;;;;;;;;;;5130344;27;20205;-73
2023/01/26 15:59:49;;;;;;;280.17;71.97;;;;;;;;;;5132068;27;20196;-74
2023/01/26 16:02:22;;;;;;;295.58;78.50;;;;;;;;;;5129629;27;20231;-73
2023/01/26 16:04:58;;;;;;;280.73;75.63;;;;;;;;;;5136488;27;20200;-74
2023/01/26 16:07:32;;;;;;;286.23;75.90;;;;;;;;;;5135416;27;20282;-74
2023/01/26 16:10:00;;;;;;;269.15;68.53;;;;;;;;;;5119001;27;20232;-73
2023/01/26 16:12:28;;;;;;;282.92;73.50;;;;;;;;;;5118228;27;20200;-74
2023/01/26 16:14:56;;;;;;;283.73;76.07;;;;;;;;;;5132222;27;20507;-72
2023/01/26 16:17:35;;;;;;;267.45;67.35;;;;;;;;;;5136053;27;20236;-74
2023/01/26 16:20:11;;;;;;;276.15;74.13;;;;;;;;;;5131172;27;20264;-74
2023/01/26 16:22:46;;;;;;;276.60;69.22;;;;;;;;;;5138495;27;20280;-73
2023/01/26 16:25:20;;;;;;;281.75;71.93;;;;;;;;;;5137125;27;20204;-73
2023/01/26 16:27:48;;;;;;;284.08;74.40;;;;;;;;;;5138855;27;20479;-74
2023/01/26 16:30:16;;;;;;;274.25;68.63;;;;;;;;;;5137599;27;20207;-74